Parnell, Kentucky
Current Conditions -  °F | °C
As of 4:22 AM on Monday 20 Oct 2014 (Local Time) from KEKQ Reporting Station
Moderate Fog Moderate Fog  
Wind Chill: 43°   Ceiling: Unl
Heat Index: 43°   Visibility: 0.5mi
Dew Point: 43°   Wind: 0mph
Humidity: 100%   Direction: NA
Pressure: 30.09"   Gusts: NA
Location:  36.8129°N, 84.8215°W
Report Text: KEKQ 200822Z AUTO 00000KT 1/2SM FG CLR 06/06 A3009 RMK AO2
Loading
Personal Weather Stations






























Interactive Weather Map
Tropical Storm Tracking
New forecast layout! Learn more

10-Day Weather Forecast

Advertisements
Track Severe Weather on mobile